createdAt,value
2019-05-21T00:00:09.784Z,57.23
2019-05-21T00:02:39.328Z,56.73
2019-05-21T00:05:09.130Z,55.87
2019-05-21T00:07:38.774Z,56.17
2019-05-21T00:10:08.470Z,54.93
2019-05-21T00:12:38.018Z,56.47
2019-05-21T00:15:07.818Z,54.40
2019-05-21T00:17:37.304Z,55.37
2019-05-21T00:20:07.401Z,53.33
2019-05-21T00:22:36.954Z,54.23
2019-05-21T00:25:06.487Z,53.87
2019-05-21T00:27:37.017Z,52.43
2019-05-21T00:30:43.225Z,52.50
2019-05-21T00:33:49.222Z,54.37
2019-05-21T00:36:56.877Z,52.13
2019-05-21T00:40:02.827Z,54.03
2019-05-21T00:42:36.056Z,55.40
2019-05-21T00:45:08.891Z,55.87
2019-05-21T00:47:38.430Z,56.67
2019-05-21T00:50:09.129Z,55.63
2019-05-21T00:52:38.625Z,55.80
2019-05-21T00:55:08.106Z,58.20
2019-05-21T00:57:37.581Z,53.97
2019-05-21T01:00:08.185Z,54.23
2019-05-21T01:02:37.680Z,54.80
2019-05-21T01:05:07.149Z,52.03
2019-05-21T01:07:37.095Z,56.00
2019-05-21T01:10:07.198Z,53.07
2019-05-21T01:12:36.681Z,51.90
2019-05-21T01:15:07.973Z,50.73
2019-05-21T01:17:37.472Z,52.23
2019-05-21T01:20:07.088Z,46.37
2019-05-21T01:22:36.572Z,50.10
2019-05-21T01:25:06.462Z,47.60
2019-05-21T01:27:35.943Z,48.20
2019-05-21T01:30:06.652Z,48.20
2019-05-21T01:32:37.221Z,47.97
2019-05-21T01:35:16.674Z,45.90
2019-05-21T01:37:38.749Z,44.10
2019-05-21T01:40:08.220Z,43.40
2019-05-21T01:42:37.657Z,42.23
2019-05-21T01:45:07.460Z,41.10
2019-05-21T01:47:36.925Z,40.63
2019-05-21T01:50:06.960Z,42.47
2019-05-21T01:52:36.412Z,43.63
2019-05-21T01:55:06.417Z,43.47
2019-05-21T01:57:35.865Z,44.43
2019-05-21T02:00:06.945Z,43.23
2019-05-21T02:02:36.563Z,44.20
2019-05-21T02:05:06.911Z,48.50
2019-05-21T02:07:37.614Z,45.50
2019-05-21T02:10:08.342Z,43.80
2019-05-21T02:12:37.861Z,45.30
2019-05-21T02:15:15.055Z,45.47
2019-05-21T02:17:44.501Z,45.27
2019-05-21T02:20:14.210Z,45.27
2019-05-21T02:22:43.664Z,45.23
2019-05-21T02:25:13.255Z,47.97
2019-05-21T02:27:42.735Z,50.53
2019-05-21T02:30:12.626Z,48.63
2019-05-21T02:32:42.114Z,48.67
2019-05-21T02:35:11.826Z,48.83
2019-05-21T02:37:41.315Z,49.33
2019-05-21T02:40:11.310Z,50.87
2019-05-21T02:42:40.866Z,50.93
2019-05-21T02:45:10.642Z,50.03
2019-05-21T02:47:40.186Z,50.90
2019-05-21T02:50:09.969Z,50.43
2019-05-21T02:52:39.455Z,50.83
2019-05-21T02:55:10.066Z,50.00
2019-05-21T02:57:41.210Z,50.57
2019-05-21T03:00:16.929Z,47.93
2019-05-21T03:02:46.385Z,54.23
2019-05-21T03:05:15.990Z,52.93
2019-05-21T03:07:45.406Z,50.60
2019-05-21T03:10:15.251Z,54.00
2019-05-21T03:12:44.718Z,53.53
2019-05-21T03:15:14.263Z,54.83
2019-05-21T03:17:43.714Z,54.30
2019-05-21T03:20:13.258Z,52.70
2019-05-21T03:22:42.709Z,50.27
2019-05-21T03:25:13.300Z,52.53
2019-05-21T03:27:42.766Z,52.50
2019-05-21T03:30:13.487Z,54.10
2019-05-21T03:32:42.942Z,54.40
2019-05-21T03:35:12.490Z,55.07
2019-05-21T03:37:41.947Z,54.20
2019-05-21T03:40:11.658Z,52.03
2019-05-21T03:42:41.123Z,56.33
2019-05-21T03:45:11.750Z,55.63
2019-05-21T03:47:41.210Z,58.37
2019-05-21T03:50:11.122Z,57.37
2019-05-21T03:52:40.578Z,58.73
2019-05-21T03:55:10.201Z,59.67
2019-05-21T03:57:39.650Z,60.13
2019-05-21T04:00:11.239Z,62.73
2019-05-21T04:02:40.769Z,63.40
2019-05-21T04:05:10.693Z,64.90
2019-05-21T04:07:40.144Z,64.57
2019-05-21T04:10:17.097Z,65.03
2019-05-21T04:12:48.185Z,68.37
2019-05-21T04:15:19.297Z,67.00
2019-05-21T04:17:50.516Z,68.33
2019-05-21T04:20:20.082Z,68.20
2019-05-21T04:22:52.499Z,67.57
2019-05-21T04:25:23.271Z,68.17
2019-05-21T04:27:52.782Z,69.60
2019-05-21T04:30:22.263Z,69.03
2019-05-21T04:32:51.712Z,70.47
2019-05-21T04:35:21.194Z,69.67
2019-05-21T04:37:50.649Z,73.00
2019-05-21T04:40:20.208Z,72.37
2019-05-21T04:42:49.688Z,74.80
2019-05-21T04:45:19.154Z,72.20
2019-05-21T04:47:48.608Z,72.07
2019-05-21T04:50:18.086Z,69.73
2019-05-21T04:52:47.546Z,71.90
2019-05-21T04:55:17.027Z,74.50
2019-05-21T04:57:46.487Z,72.07
2019-05-21T05:00:16.102Z,75.47
2019-05-21T05:02:45.560Z,74.37
2019-05-21T05:05:15.108Z,72.80
2019-05-21T05:07:44.681Z,75.67
2019-05-21T05:10:14.303Z,73.47
2019-05-21T05:12:43.762Z,74.17
2019-05-21T05:15:13.786Z,75.63
2019-05-21T05:17:43.254Z,75.40
2019-05-21T05:20:13.357Z,74.73
2019-05-21T05:22:42.822Z,75.43
2019-05-21T05:25:12.457Z,75.17
2019-05-21T05:27:41.914Z,73.90
2019-05-21T05:30:11.619Z,74.30
2019-05-21T05:32:42.138Z,72.97
2019-05-21T05:35:12.271Z,76.33
2019-05-21T05:37:45.199Z,77.60
2019-05-21T05:40:13.608Z,75.63
2019-05-21T05:42:43.340Z,72.87
2019-05-21T05:45:14.604Z,77.13
2019-05-21T05:47:44.057Z,74.37
2019-05-21T05:50:15.225Z,69.17
2019-05-21T05:52:44.702Z,71.43
2019-05-21T05:55:14.325Z,69.77
2019-05-21T05:57:43.812Z,74.17
2019-05-21T06:00:14.368Z,69.40
2019-05-21T06:02:43.905Z,68.57
2019-05-21T06:05:14.001Z,66.43
2019-05-21T06:07:58.402Z,67.10
2019-05-21T06:10:14.906Z,66.53
2019-05-21T06:12:44.385Z,65.90
2019-05-21T06:15:14.288Z,65.30
2019-05-21T06:17:43.830Z,67.60
2019-05-21T06:20:13.931Z,68.77
2019-05-21T06:22:43.420Z,62.67
2019-05-21T06:25:13.346Z,63.13
2019-05-21T06:27:42.800Z,58.97
2019-05-21T06:30:13.900Z,55.77
2019-05-21T06:32:43.369Z,51.63
2019-05-21T06:35:12.966Z,50.17
2019-05-21T06:37:42.437Z,51.40
2019-05-21T06:40:12.332Z,50.10
2019-05-21T06:42:42.875Z,54.40
2019-05-21T06:45:13.178Z,52.33
2019-05-21T06:47:42.652Z,48.93
2019-05-21T06:50:12.232Z,48.13
2019-05-21T06:52:41.721Z,49.63
2019-05-21T06:55:11.819Z,52.67
2019-05-21T06:57:41.308Z,54.53
2019-05-21T07:00:12.095Z,52.60
2019-05-21T07:02:41.563Z,52.80
2019-05-21T07:05:11.355Z,49.73
2019-05-21T07:07:40.870Z,52.20
2019-05-21T07:10:10.616Z,55.33
2019-05-21T07:12:40.086Z,56.27
2019-05-21T07:15:10.283Z,52.33
2019-05-21T07:17:39.774Z,52.00
2019-05-21T07:20:09.665Z,52.90
2019-05-21T07:22:40.507Z,51.60
2019-05-21T07:25:10.466Z,50.57
2019-05-21T07:27:40.073Z,48.43
2019-05-21T07:30:10.753Z,47.23
2019-05-21T07:32:40.397Z,49.30
2019-05-21T07:35:10.064Z,48.20
2019-05-21T07:37:40.601Z,46.50
2019-05-21T07:40:11.559Z,48.00
2019-05-21T07:42:41.029Z,50.17
2019-05-21T07:45:10.616Z,47.70
2019-05-21T07:47:40.093Z,48.23
2019-05-21T07:50:09.793Z,48.70
2019-05-21T07:52:39.266Z,49.90
2019-05-21T07:55:09.063Z,50.00
2019-05-21T07:57:38.528Z,50.10
2019-05-21T08:00:09.010Z,48.63
2019-05-21T08:02:38.481Z,47.80
2019-05-21T08:05:08.097Z,44.90
2019-05-21T08:07:37.745Z,42.17
2019-05-21T08:10:08.034Z,42.90
2019-05-21T08:12:39.634Z,43.37
2019-05-21T08:15:40.367Z,40.33
2019-05-21T08:18:09.859Z,33.60
2019-05-21T08:20:39.303Z,33.20
2019-05-21T08:23:08.806Z,32.87
2019-05-21T08:25:38.254Z,35.10
2019-05-21T08:28:07.798Z,32.47
2019-05-21T08:30:37.294Z,32.67
2019-05-21T08:33:06.834Z,34.37
2019-05-21T08:35:37.263Z,31.43
2019-05-21T08:38:07.955Z,29.73
2019-05-21T08:40:37.426Z,30.73
2019-05-21T08:43:06.900Z,27.77
2019-05-21T08:45:36.356Z,24.80
2019-05-21T08:48:05.921Z,26.30
2019-05-21T08:50:35.373Z,24.97
2019-05-21T08:53:04.986Z,24.87
2019-05-21T08:55:34.437Z,26.23
2019-05-21T09:00:35.275Z,24.47
2019-05-21T09:03:04.818Z,22.83
2019-05-21T09:03:13.793Z,27.43
2019-05-21T09:05:34.382Z,23.43
2019-05-21T09:08:03.887Z,22.20
2019-05-21T09:10:33.336Z,23.53
2019-05-21T09:13:02.873Z,23.43
2019-05-21T09:15:32.346Z,24.70
2019-05-21T09:18:01.904Z,25.50
2019-05-21T09:20:31.381Z,25.50
2019-05-21T09:23:00.854Z,25.97
2019-05-21T09:25:30.304Z,27.40
2019-05-21T09:28:00.250Z,26.87
2019-05-21T09:30:29.783Z,27.33
2019-05-21T09:32:59.246Z,28.27
2019-05-21T09:35:28.703Z,28.57
2019-05-21T09:37:58.177Z,28.60
2019-05-21T09:40:28.570Z,28.50
2019-05-21T09:42:58.054Z,29.20
2019-05-21T09:45:27.497Z,29.17
2019-05-21T09:47:56.972Z,31.20
2019-05-21T09:50:26.488Z,29.83
2019-05-21T09:52:55.960Z,30.93
2019-05-21T09:55:25.411Z,29.87
2019-05-21T09:58:02.601Z,30.00
2019-05-21T10:00:36.728Z,29.37
2019-05-21T10:03:10.806Z,30.37
2019-05-21T10:05:40.260Z,31.90
2019-05-21T10:08:10.865Z,32.03
2019-05-21T10:10:40.312Z,33.33
2019-05-21T10:13:09.797Z,32.50
2019-05-21T10:15:39.304Z,31.87
2019-05-21T10:18:08.847Z,31.17
2019-05-21T10:20:38.333Z,29.83
2019-05-21T10:23:07.792Z,30.10
2019-05-21T10:25:37.296Z,30.33
2019-05-21T10:28:06.876Z,29.00
2019-05-21T10:30:36.372Z,28.60
2019-05-21T10:33:05.829Z,28.13
2019-05-21T10:35:35.301Z,27.47
2019-05-21T10:38:04.846Z,26.77
2019-05-21T10:40:34.298Z,28.00
2019-05-21T10:43:03.750Z,28.60
2019-05-21T10:45:33.308Z,29.60
2019-05-21T10:48:02.759Z,27.63
2019-05-21T10:50:32.254Z,28.77
2019-05-21T10:53:01.710Z,28.30
2019-05-21T10:55:31.253Z,29.77
2019-05-21T10:58:00.717Z,27.23
2019-05-21T11:00:30.601Z,28.03
2019-05-21T11:03:05.135Z,28.57
2019-05-21T11:05:45.309Z,29.33
2019-05-21T11:08:24.097Z,28.07
2019-05-21T11:10:47.271Z,28.10
2019-05-21T11:13:16.778Z,26.27
2019-05-21T11:15:46.251Z,25.63
2019-05-21T11:18:15.782Z,27.63
2019-05-21T11:20:45.325Z,27.60
2019-05-21T11:23:14.776Z,27.93
2019-05-21T11:25:44.245Z,27.20
2019-05-21T11:28:13.702Z,24.90
2019-05-21T11:30:43.209Z,23.57
2019-05-21T11:33:12.639Z,22.93
2019-05-21T11:35:42.259Z,23.07
2019-05-21T11:38:11.775Z,23.70
2019-05-21T11:40:41.329Z,22.67
2019-05-21T11:43:10.851Z,22.40
2019-05-21T11:45:40.322Z,22.20
2019-05-21T11:48:09.777Z,22.30
2019-05-21T11:50:39.254Z,22.43
2019-05-21T11:53:08.706Z,23.83
2019-05-21T11:55:38.251Z,25.03
2019-05-21T11:58:07.698Z,24.07
2019-05-21T12:00:37.287Z,25.20
2019-05-21T12:03:06.794Z,23.70
2019-05-21T12:05:37.336Z,23.40
2019-05-21T12:08:06.854Z,23.03
2019-05-21T12:10:37.500Z,22.67
2019-05-21T12:13:06.954Z,23.47
2019-05-21T12:15:36.489Z,22.23
2019-05-21T12:18:06.019Z,22.00
2019-05-21T12:20:37.359Z,20.23
2019-05-21T12:23:07.479Z,19.70
2019-05-21T12:25:36.958Z,16.43
2019-05-21T12:28:06.417Z,18.73
2019-05-21T12:30:35.968Z,18.97
2019-05-21T12:33:05.417Z,18.37
2019-05-21T12:35:34.885Z,17.07
2019-05-21T12:38:04.551Z,16.77
2019-05-21T12:40:34.007Z,14.53
2019-05-21T12:43:03.458Z,15.10
2019-05-21T12:45:32.929Z,14.23
2019-05-21T12:48:02.397Z,13.83
2019-05-21T12:50:31.861Z,15.53
2019-05-21T12:53:01.311Z,14.83
2019-05-21T12:55:30.781Z,14.43
2019-05-21T12:58:00.231Z,13.70
2019-05-21T13:00:31.917Z,14.37
2019-05-21T13:03:01.364Z,14.17
2019-05-21T13:05:30.882Z,13.73
2019-05-21T13:08:00.287Z,12.93
2019-05-21T13:10:29.778Z,13.93
2019-05-21T13:12:59.283Z,12.13
2019-05-21T13:15:28.764Z,12.20
2019-05-21T13:17:59.413Z,12.77
2019-05-21T13:20:28.909Z,11.87
2019-05-21T13:22:58.350Z,12.97
2019-05-21T13:25:28.857Z,13.13
2019-05-21T13:27:58.325Z,13.23
2019-05-21T13:30:27.866Z,14.27
2019-05-21T13:32:57.321Z,13.83
2019-05-21T13:35:26.819Z,13.10
2019-05-21T13:37:56.257Z,13.93
2019-05-21T13:40:27.601Z,14.37
2019-05-21T13:42:57.134Z,13.67
2019-05-21T13:45:26.606Z,14.73
2019-05-21T13:47:56.128Z,14.03
2019-05-21T13:50:25.703Z,14.77
2019-05-21T13:52:55.177Z,16.13
2019-05-21T13:55:24.644Z,17.23
2019-05-21T13:57:54.102Z,17.00
2019-05-21T14:00:28.215Z,17.80
2019-05-21T14:02:58.221Z,19.67
2019-05-21T14:05:28.618Z,20.57
2019-05-21T14:07:59.161Z,22.40
2019-05-21T14:10:28.875Z,24.27
2019-05-21T14:12:58.482Z,25.60
2019-05-21T14:15:27.935Z,25.43
2019-05-21T14:17:57.410Z,24.30
2019-05-21T14:20:26.930Z,24.17
2019-05-21T14:22:56.402Z,24.77
2019-05-21T14:25:25.917Z,24.93
2019-05-21T14:27:55.462Z,26.73
2019-05-21T14:30:24.982Z,27.07
2019-05-21T14:32:54.473Z,26.37
2019-05-21T14:35:23.907Z,27.17
2019-05-21T14:37:53.393Z,26.60
2019-05-21T14:40:31.667Z,28.53
2019-05-21T14:42:59.731Z,26.83
2019-05-21T14:45:29.005Z,28.73
2019-05-21T14:47:56.958Z,30.13
2019-05-21T14:50:26.406Z,31.83
2019-05-21T14:52:55.882Z,29.20
2019-05-21T14:55:25.338Z,30.10
2019-05-21T14:57:54.879Z,31.27
2019-05-21T15:00:30.191Z,30.97
2019-05-21T15:02:59.700Z,30.27
2019-05-21T15:05:29.155Z,30.93
2019-05-21T15:07:58.634Z,30.13
2019-05-21T15:10:28.085Z,29.80
2019-05-21T15:12:57.566Z,30.43
2019-05-21T15:15:27.019Z,28.37
2019-05-21T15:17:56.565Z,29.27
2019-05-21T15:20:27.999Z,28.67
2019-05-21T15:22:57.689Z,27.93
2019-05-21T15:25:27.229Z,28.10
2019-05-21T15:27:56.765Z,28.83
2019-05-21T15:30:26.224Z,28.70
2019-05-21T15:32:55.701Z,27.27
2019-05-21T15:35:25.166Z,27.23
2019-05-21T15:37:54.644Z,28.97
2019-05-21T15:40:24.161Z,23.20
2019-05-21T15:42:53.966Z,23.37
2019-05-21T15:45:24.533Z,24.57
2019-05-21T15:47:54.008Z,24.60
2019-05-21T15:50:23.463Z,23.30
2019-05-21T15:52:52.938Z,22.87
2019-05-21T15:55:22.463Z,21.97
2019-05-21T15:57:51.949Z,22.97
2019-05-21T16:00:22.826Z,21.43
2019-05-21T16:02:52.301Z,21.20
2019-05-21T16:05:21.774Z,20.63
2019-05-21T16:07:51.239Z,19.60
2019-05-21T16:10:20.698Z,19.07
2019-05-21T16:12:53.914Z,19.80
2019-05-21T16:15:21.240Z,18.60
2019-05-21T16:17:50.714Z,17.97
2019-05-21T16:20:20.234Z,18.67
2019-05-21T16:22:49.715Z,18.20
2019-05-21T16:25:19.237Z,18.10
2019-05-21T16:27:48.714Z,19.03
2019-05-21T16:30:18.152Z,18.13
2019-05-21T16:32:47.807Z,19.27
2019-05-21T16:35:17.343Z,18.63
2019-05-21T16:37:46.869Z,18.70
2019-05-21T16:40:17.025Z,18.77
2019-05-21T16:42:46.497Z,18.10
2019-05-21T16:45:16.088Z,17.13
2019-05-21T16:47:46.863Z,18.73
2019-05-21T16:50:17.616Z,19.90
2019-05-21T16:52:47.482Z,18.50
2019-05-21T16:55:16.870Z,18.67
2019-05-21T16:57:46.905Z,18.83
2019-05-21T17:00:17.989Z,18.50
2019-05-21T17:02:47.554Z,18.37
2019-05-21T17:05:17.143Z,19.60
2019-05-21T17:07:46.623Z,17.80
2019-05-21T17:10:17.176Z,19.47
2019-05-21T17:12:46.626Z,19.40
2019-05-21T17:15:16.234Z,17.87
2019-05-21T17:17:45.687Z,17.87
2019-05-21T17:20:15.698Z,16.87
2019-05-21T17:22:45.227Z,16.27
2019-05-21T17:25:15.927Z,16.57
2019-05-21T17:27:45.434Z,15.77
2019-05-21T17:30:16.348Z,15.03
2019-05-21T17:32:46.012Z,15.87
2019-05-21T17:35:15.662Z,15.27
2019-05-21T17:37:45.146Z,16.37
2019-05-21T17:40:14.766Z,15.10
2019-05-21T17:42:44.278Z,15.03
2019-05-21T17:45:14.195Z,13.97
2019-05-21T17:47:43.636Z,15.27
2019-05-21T17:50:14.517Z,13.83
2019-05-21T17:52:43.971Z,14.97
2019-05-21T17:55:13.799Z,13.77
2019-05-21T17:57:43.870Z,13.90
2019-05-21T18:00:15.165Z,14.23
2019-05-21T18:02:45.037Z,12.77
2019-05-21T18:05:15.319Z,13.37
2019-05-21T18:07:45.428Z,12.67
2019-05-21T18:10:16.308Z,13.43
2019-05-21T18:12:46.115Z,12.43
2019-05-21T18:15:16.701Z,12.80
2019-05-21T18:17:46.533Z,12.83
2019-05-21T18:20:17.723Z,12.00
2019-05-21T18:22:48.474Z,10.50
2019-05-21T18:25:18.037Z,11.03
2019-05-21T18:27:47.489Z,10.40
2019-05-21T18:30:17.467Z,10.53
2019-05-21T18:32:47.669Z,10.60
2019-05-21T18:35:17.264Z,9.70
2019-05-21T18:37:46.781Z,10.33
2019-05-21T18:40:16.685Z,10.53
2019-05-21T18:42:46.208Z,9.60
2019-05-21T18:45:15.892Z,10.57
2019-05-21T18:47:45.405Z,9.37
2019-05-21T18:50:15.213Z,10.33
2019-05-21T18:52:44.729Z,10.87
2019-05-21T18:55:14.590Z,10.93
2019-05-21T18:57:44.105Z,10.97
2019-05-21T19:00:15.472Z,11.60
2019-05-21T19:02:45.253Z,10.87
2019-05-21T19:05:14.876Z,11.53
2019-05-21T19:07:44.605Z,11.60
2019-05-21T19:10:14.151Z,11.60
2019-05-21T19:12:43.774Z,11.40
2019-05-21T19:15:13.611Z,10.80
2019-05-21T19:17:43.122Z,11.63
2019-05-21T19:20:15.109Z,11.27
2019-05-21T19:22:46.488Z,12.50
2019-05-21T19:25:17.206Z,12.07
2019-05-21T19:27:46.653Z,15.87
2019-05-21T19:30:16.865Z,16.73
2019-05-21T19:32:46.939Z,18.17
2019-05-21T19:35:16.574Z,19.63
2019-05-21T19:37:46.095Z,21.50
2019-05-21T19:40:16.909Z,21.13
2019-05-21T19:42:54.842Z,22.97
2019-05-21T19:45:17.790Z,24.03
2019-05-21T19:47:47.311Z,25.67
2019-05-21T19:50:17.428Z,27.27
2019-05-21T19:52:46.874Z,25.63
2019-05-21T19:55:16.491Z,27.00
2019-05-21T19:57:46.012Z,27.43
2019-05-21T20:00:18.634Z,28.40
2019-05-21T20:02:48.696Z,28.90
2019-05-21T20:05:18.346Z,30.33
2019-05-21T20:07:47.934Z,29.10
2019-05-21T20:10:17.921Z,29.07
2019-05-21T20:12:47.509Z,28.97
2019-05-21T20:15:17.289Z,29.83
2019-05-21T20:17:50.835Z,30.33
2019-05-21T20:20:23.749Z,31.30
2019-05-21T20:22:53.676Z,28.13
2019-05-21T20:25:23.454Z,30.17
2019-05-21T20:27:53.065Z,31.60
2019-05-21T20:30:24.386Z,33.67
2019-05-21T20:32:54.180Z,32.17
2019-05-21T20:35:25.437Z,33.33
2019-05-21T20:37:55.017Z,32.00
2019-05-21T20:40:26.010Z,30.63
2019-05-21T20:42:55.970Z,31.47
2019-05-21T20:45:27.186Z,32.83
2019-05-21T20:47:57.659Z,32.83
2019-05-21T20:50:28.335Z,32.70
2019-05-21T20:52:57.783Z,32.43
2019-05-21T20:55:27.702Z,32.00
2019-05-21T20:57:57.411Z,32.23
2019-05-21T21:00:31.282Z,32.43
2019-05-21T21:03:01.059Z,30.67
2019-05-21T21:05:30.945Z,32.80
2019-05-21T21:08:00.453Z,33.97
2019-05-21T21:10:29.916Z,34.07
2019-05-21T21:12:59.469Z,30.73
2019-05-21T21:15:28.994Z,32.53
2019-05-21T21:17:59.509Z,32.10
2019-05-21T21:20:29.203Z,33.87
2019-05-21T21:22:58.751Z,31.30
2019-05-21T21:25:28.685Z,34.27
2019-05-21T21:27:58.302Z,32.33
2019-05-21T21:30:27.860Z,34.60
2019-05-21T21:32:58.970Z,34.17
2019-05-21T21:35:28.498Z,35.23
2019-05-21T21:37:57.967Z,34.07
2019-05-21T21:40:27.896Z,32.33
2019-05-21T21:42:57.539Z,34.27
2019-05-21T21:45:27.235Z,34.97
2019-05-21T21:47:57.649Z,36.03
2019-05-21T21:50:28.086Z,33.93
2019-05-21T21:52:57.826Z,36.93
2019-05-21T21:55:27.298Z,36.37
2019-05-21T21:57:56.773Z,38.17
2019-05-21T22:00:42.942Z,37.33
2019-05-21T22:03:13.454Z,36.63
2019-05-21T22:05:43.562Z,38.20
2019-05-21T22:08:13.186Z,38.03
2019-05-21T22:10:45.777Z,38.00
2019-05-21T22:13:14.576Z,37.73
2019-05-21T22:15:44.021Z,38.37
2019-05-21T22:18:14.263Z,36.73
2019-05-21T22:20:44.157Z,38.03
2019-05-21T22:23:13.697Z,38.77
2019-05-21T22:25:43.154Z,37.40
2019-05-21T22:28:12.707Z,36.87
2019-05-21T22:30:42.153Z,37.03
2019-05-21T22:33:11.975Z,37.13
2019-05-21T22:35:41.659Z,40.53
2019-05-21T22:38:11.412Z,37.70
2019-05-21T22:40:41.797Z,37.73
2019-05-21T22:43:11.310Z,36.93
2019-05-21T22:45:40.737Z,39.27
2019-05-21T22:48:10.282Z,33.57
2019-05-21T22:50:39.816Z,34.87
2019-05-21T22:53:10.348Z,32.30
2019-05-21T22:55:40.779Z,33.93
2019-05-21T22:58:10.326Z,34.90
2019-05-21T23:00:40.338Z,32.43
2019-05-21T23:03:10.050Z,30.23
2019-05-21T23:05:40.569Z,32.70
2019-05-21T23:08:10.127Z,29.37
2019-05-21T23:10:39.579Z,28.70
2019-05-21T23:13:09.045Z,28.30
2019-05-21T23:15:39.606Z,27.93
2019-05-21T23:18:19.757Z,28.43
2019-05-21T23:21:08.746Z,29.97
2019-05-21T23:23:39.993Z,25.30
2019-05-21T23:26:09.542Z,26.40
2019-05-21T23:28:40.081Z,25.30
2019-05-21T23:31:12.161Z,25.80
2019-05-21T23:33:42.210Z,25.93
2019-05-21T23:36:11.906Z,26.53
2019-05-21T23:38:41.627Z,25.50
2019-05-21T23:41:11.531Z,25.53
2019-05-21T23:43:41.340Z,25.83
2019-05-21T23:46:10.884Z,24.53
2019-05-21T23:48:41.122Z,25.47
2019-05-21T23:51:11.358Z,24.50
2019-05-21T23:53:41.169Z,25.87
2019-05-21T23:56:10.626Z,26.53
2019-05-21T23:58:40.162Z,27.93
